Time;durP1;ratioP1;P1;durP2;ratioP2;P2;SDS_P1;SDS_P2;PMS_P1;PMS_P2;Temp;Humidity;BMP_temperature;BMP_pressure;BME280_temperature;BME280_humidity;BME280_pressure;Samples;Min_cycle;Max_cycle;Signal;HPM_P1;HPM_P2
2023/01/28 00:02:05;;;;;;;35.00;22.97;;;-1.30;99.90;;;;;;5093421;28;20454;-77
2023/01/28 00:04:35;;;;;;;30.80;21.33;;;-1.50;99.90;;;;;;5093822;28;20480;-75
2023/01/28 00:07:04;;;;;;;31.10;21.33;;;-1.50;99.90;;;;;;5100622;28;20798;-77
2023/01/28 00:09:32;;;;;;;30.50;21.20;;;-1.50;99.90;;;;;;5114238;28;20439;-77
2023/01/28 00:12:00;;;;;;;32.47;23.17;;;-1.50;99.90;;;;;;5113588;28;20460;-77
2023/01/28 00:14:28;;;;;;;33.50;22.10;;;-1.50;99.90;;;;;;5113756;28;20456;-76
2023/01/28 00:16:56;;;;;;;31.93;22.63;;;-1.50;99.90;;;;;;5112279;28;20466;-76
2023/01/28 00:19:25;;;;;;;30.70;22.00;;;-1.50;99.90;;;;;;5113783;28;20488;-75
2023/01/28 00:21:54;;;;;;;29.93;21.63;;;-1.50;99.90;;;;;;5113154;28;20444;-77
2023/01/28 00:24:22;;;;;;;30.17;21.80;;;-1.50;99.90;;;;;;5097785;28;20465;-77
2023/01/28 00:26:50;;;;;;;29.80;20.97;;;-1.50;99.90;;;;;;5093254;28;20452;-77
2023/01/28 00:29:18;;;;;;;30.70;20.77;;;-1.50;99.90;;;;;;5092958;28;20856;-77
2023/01/28 00:31:47;;;;;;;30.23;20.97;;;-1.50;99.90;;;;;;5093062;28;20469;-77
2023/01/28 00:34:15;;;;;;;31.23;21.40;;;-1.40;99.90;;;;;;5092900;28;20800;-77
2023/01/28 00:36:44;;;;;;;32.47;22.37;;;-1.40;99.90;;;;;;5092875;28;20457;-77
2023/01/28 00:39:15;;;;;;;30.37;21.10;;;-1.40;99.90;;;;;;5092500;28;20496;-77
2023/01/28 00:41:43;;;;;;;29.73;21.70;;;-1.40;99.90;;;;;;5093054;28;20493;-75
2023/01/28 00:44:12;;;;;;;32.77;22.73;;;-1.30;99.90;;;;;;5093093;28;20470;-75
2023/01/28 00:46:40;;;;;;;30.33;20.70;;;-1.40;99.90;;;;;;5093140;28;20451;-77
2023/01/28 00:49:10;;;;;;;31.07;21.67;;;-1.40;99.90;;;;;;5105653;28;20462;-76
2023/01/28 00:51:38;;;;;;;31.00;21.90;;;-1.50;99.90;;;;;;5112784;28;20436;-76
2023/01/28 00:54:06;;;;;;;28.57;20.13;;;-1.50;99.90;;;;;;5112881;28;20976;-77
2023/01/28 00:56:37;;;;;;;31.17;20.93;;;-1.40;99.90;;;;;;5112935;28;20447;-75
2023/01/28 00:59:05;;;;;;;30.30;21.00;;;-1.40;99.90;;;;;;5094948;28;20481;-77
2023/01/28 01:01:33;;;;;;;30.13;20.63;;;-1.40;99.90;;;;;;5092107;28;20947;-76
2023/01/28 01:04:02;;;;;;;30.00;20.27;;;-1.40;99.90;;;;;;5092434;28;20451;-77
2023/01/28 01:06:32;;;;;;;28.20;20.73;;;-1.40;99.90;;;;;;5092457;28;20448;-75
2023/01/28 01:09:01;;;;;;;30.53;21.10;;;-1.40;99.90;;;;;;5112986;28;20547;-77
2023/01/28 01:11:30;;;;;;;31.10;21.23;;;-1.40;99.90;;;;;;5112784;28;20505;-76
2023/01/28 01:14:04;;;;;;;31.53;21.87;;;-1.40;99.90;;;;;;5112526;28;20452;-76
2023/01/28 01:16:34;;;;;;;30.17;20.73;;;-1.40;99.90;;;;;;5095001;28;20571;-76
2023/01/28 01:19:05;;;;;;;28.87;20.60;;;-1.40;99.90;;;;;;5092279;28;20483;-76
2023/01/28 01:21:33;;;;;;;29.97;21.20;;;-1.50;99.90;;;;;;5092375;28;20453;-76
2023/01/28 01:24:01;;;;;;;30.77;21.03;;;-1.50;99.90;;;;;;5091807;28;20577;-76
2023/01/28 01:26:30;;;;;;;31.13;20.83;;;-1.50;99.90;;;;;;5092364;28;20483;-77
2023/01/28 01:29:01;;;;;;;28.60;20.80;;;-1.50;99.90;;;;;;5092554;28;20922;-75
2023/01/28 01:31:30;;;;;;;30.07;21.13;;;-1.50;99.90;;;;;;5092145;28;20953;-76
2023/01/28 01:33:58;;;;;;;29.03;20.47;;;-1.50;99.90;;;;;;5091561;28;20460;-77
2023/01/28 01:36:26;;;;;;;31.03;21.17;;;-1.50;99.90;;;;;;5092760;28;20970;-78
2023/01/28 01:38:55;;;;;;;31.40;21.77;;;-1.50;99.90;;;;;;5092340;28;20471;-77
2023/01/28 01:41:27;;;;;;;32.07;20.77;;;-1.60;99.90;;;;;;5092529;28;20465;-75
2023/01/28 01:43:58;;;;;;;32.77;21.43;;;-1.60;99.90;;;;;;5092206;28;20451;-75
2023/01/28 01:46:36;;;;;;;32.23;22.63;;;-1.60;99.90;;;;;;5091984;28;20827;-75
2023/01/28 01:49:13;;;;;;;32.43;21.77;;;-1.60;99.90;;;;;;5092078;28;20470;-76
2023/01/28 01:51:42;;;;;;;28.70;20.73;;;-1.60;99.90;;;;;;5092410;28;20445;-75
2023/01/28 01:54:11;;;;;;;33.23;22.70;;;-1.60;99.90;;;;;;5092119;28;20463;-75
2023/01/28 01:56:43;;;;;;;31.57;21.53;;;-1.60;99.90;;;;;;5091961;28;20510;-77
2023/01/28 01:59:13;;;;;;;28.70;20.40;;;-1.70;99.90;;;;;;5091818;28;20492;-76
2023/01/28 02:01:44;;;;;;;31.60;20.90;;;-1.70;99.90;;;;;;5091912;28;20456;-75
2023/01/28 02:04:19;;;;;;;31.67;21.07;;;-1.70;99.90;;;;;;5091955;28;20471;-76
2023/01/28 02:06:48;;;;;;;30.60;20.70;;;-1.70;99.90;;;;;;5073794;28;20969;-76
2023/01/28 02:09:24;;;;;;;30.73;20.10;;;-1.70;99.90;;;;;;5103209;28;20483;-75
2023/01/28 02:11:56;;;;;;;32.33;21.77;;;-1.70;99.90;;;;;;5115830;28;20550;-74
2023/01/28 02:14:28;;;;;;;29.73;20.47;;;-1.70;99.90;;;;;;5116224;28;20467;-77
2023/01/28 02:17:01;;;;;;;30.67;21.63;;;-1.70;99.90;;;;;;5111874;28;21008;-77
2023/01/28 02:19:37;;;;;;;30.17;20.10;;;-1.70;99.90;;;;;;5096309;28;20454;-75
2023/01/28 02:22:22;;;;;;;32.03;21.17;;;-1.70;99.90;;;;;;5095822;28;20456;-77
2023/01/28 02:25:25;;;;;;;32.20;22.10;;;-1.70;99.90;;;;;;5095858;28;20454;-76
2023/01/28 02:28:10;;;;;;;30.03;20.47;;;-1.60;99.90;;;;;;5090383;28;20464;-77
2023/01/28 02:30:42;;;;;;;31.97;20.27;;;-1.70;99.90;;;;;;5095454;28;20958;-77
2023/01/28 02:33:18;;;;;;;30.93;20.80;;;-1.60;99.90;;;;;;5095586;28;20452;-76
2023/01/28 02:35:51;;;;;;;31.07;20.77;;;-1.70;99.90;;;;;;5095514;28;20471;-75
2023/01/28 02:38:27;;;;;;;31.00;20.47;;;-1.70;99.90;;;;;;5095437;28;20480;-76
2023/01/28 02:41:05;;;;;;;31.53;20.73;;;-1.70;99.90;;;;;;5078187;28;20472;-77
2023/01/28 02:43:37;;;;;;;31.17;21.23;;;-1.70;99.90;;;;;;5095262;28;20490;-76
2023/01/28 02:49:01;;;;;;;31.27;21.07;;;-1.70;99.90;;;;;;5095251;28;20517;-78
2023/01/28 02:51:40;;;;;;;27.60;19.73;;;-1.70;99.90;;;;;;5095080;28;20972;-77
2023/01/28 02:54:11;;;;;;;30.27;20.30;;;-1.70;99.90;;;;;;5076535;28;20467;-76
2023/01/28 02:56:46;;;;;;;32.07;21.23;;;-1.70;99.90;;;;;;5095446;28;20456;-76
2023/01/28 02:59:32;;;;;;;34.50;21.73;;;-1.70;99.90;;;;;;5095174;28;20424;-75
2023/01/28 03:02:10;;;;;;;32.13;20.50;;;-1.70;99.90;;;;;;5094690;28;20457;-75
2023/01/28 03:04:45;;;;;;;30.57;21.33;;;-1.70;99.90;;;;;;5095107;28;20433;-76
2023/01/28 03:07:16;;;;;;;28.90;20.13;;;-1.70;99.90;;;;;;5099435;28;20550;-76
2023/01/28 03:09:46;;;;;;;33.33;21.40;;;-1.70;99.90;;;;;;5111594;28;20463;-74
2023/01/28 03:37:43;;;;;;;31.30;20.70;;;-1.70;99.90;;;;;;5094644;28;20445;-77
2023/01/28 03:40:12;;;;;;;27.73;19.87;;;-1.70;99.90;;;;;;5093900;28;21004;-76
2023/01/28 03:42:40;;;;;;;27.40;19.80;;;-1.70;99.90;;;;;;5093744;28;20459;-77
2023/01/28 03:45:10;;;;;;;33.93;21.70;;;-1.70;99.90;;;;;;5104051;28;20555;-75
2023/01/28 03:47:39;;;;;;;27.87;20.00;;;-1.80;99.90;;;;;;5113980;28;20819;-76
2023/01/28 03:50:09;;;;;;;32.07;20.97;;;-1.80;99.90;;;;;;5114609;28;20512;-74
2023/01/28 03:52:37;;;;;;;28.47;19.67;;;-1.80;99.90;;;;;;5104719;28;20586;-75
2023/01/28 03:55:12;;;;;;;30.53;20.97;;;-1.80;99.90;;;;;;5094272;28;20544;-77
2023/01/28 03:57:43;;;;;;;28.53;19.87;;;-1.90;99.90;;;;;;5094155;28;20433;-76
2023/01/28 04:00:13;;;;;;;32.73;20.43;;;-1.80;99.90;;;;;;5093886;28;20457;-76
2023/01/28 04:02:42;;;;;;;31.07;21.10;;;-1.80;99.90;;;;;;5093623;28;20465;-75
2023/01/28 04:05:14;;;;;;;30.23;20.90;;;-1.90;99.90;;;;;;5094057;28;20448;-78
2023/01/28 04:07:43;;;;;;;28.63;20.77;;;-1.90;99.90;;;;;;5093742;28;20459;-78
2023/01/28 04:10:12;;;;;;;28.87;20.30;;;-1.90;99.90;;;;;;5093646;28;20499;-77
2023/01/28 04:12:41;;;;;;;27.57;19.90;;;-1.80;99.90;;;;;;5093487;28;20445;-76
2023/01/28 04:15:15;;;;;;;29.13;20.00;;;-1.90;99.90;;;;;;5093674;28;20448;-78
2023/01/28 04:17:49;;;;;;;28.53;19.57;;;-1.80;99.90;;;;;;5110977;27;20477;-76
2023/01/28 04:20:17;;;;;;;28.77;19.90;;;-1.80;99.90;;;;;;5094944;28;20531;-77
2023/01/28 04:22:45;;;;;;;31.70;20.07;;;-1.80;99.90;;;;;;5093027;28;20464;-75
2023/01/28 04:25:14;;;;;;;28.40;19.80;;;-1.80;99.90;;;;;;5093398;28;20502;-76
2023/01/28 04:27:43;;;;;;;27.43;19.60;;;-1.80;99.90;;;;;;5093147;28;20473;-76
2023/01/28 04:30:12;;;;;;;30.30;20.23;;;-1.80;99.90;;;;;;5093308;28;20465;-75
2023/01/28 04:32:40;;;;;;;29.40;19.17;;;-1.80;99.90;;;;;;5092647;28;20441;-75
2023/01/28 04:35:10;;;;;;;28.03;19.87;;;-1.80;99.90;;;;;;5093473;28;20457;-75
2023/01/28 04:37:41;;;;;;;30.20;19.63;;;-1.80;99.90;;;;;;5092726;28;20943;-76
2023/01/28 04:40:10;;;;;;;28.93;20.07;;;-1.80;99.90;;;;;;5093006;28;20461;-77
2023/01/28 04:42:39;;;;;;;27.37;19.20;;;-1.70;99.90;;;;;;5092412;28;20487;-75
2023/01/28 04:45:08;;;;;;;27.47;19.23;;;-1.80;99.90;;;;;;5092739;28;20483;-75
2023/01/28 04:47:36;;;;;;;28.00;19.23;;;-1.80;99.90;;;;;;5093541;28;20490;-76
2023/01/28 04:50:06;;;;;;;28.83;19.60;;;-1.80;99.90;;;;;;5092752;28;20444;-76
2023/01/28 04:52:35;;;;;;;29.50;20.07;;;-1.90;99.90;;;;;;5092403;28;20527;-74
2023/01/28 04:55:03;;;;;;;29.40;19.43;;;-1.90;99.90;;;;;;5101905;28;20500;-74
2023/01/28 04:57:32;;;;;;;28.67;18.87;;;-1.80;99.90;;;;;;5113254;28;20814;-75
2023/01/28 05:00:00;;;;;;;30.03;19.70;;;-1.80;99.90;;;;;;5113175;28;20458;-75
2023/01/28 05:02:28;;;;;;;29.90;20.00;;;-1.80;99.90;;;;;;5103059;28;20487;-75
2023/01/28 05:04:56;;;;;;;29.87;19.90;;;-1.80;99.90;;;;;;5097771;28;20552;-76
2023/01/28 05:07:25;;;;;;;26.00;18.53;;;-1.80;99.90;;;;;;5092689;28;20455;-75
2023/01/28 05:09:54;;;;;;;27.63;18.77;;;-1.80;99.90;;;;;;5092587;28;20456;-76
2023/01/28 05:12:22;;;;;;;24.93;18.03;;;-1.80;99.90;;;;;;5091896;28;20467;-75
2023/01/28 05:14:51;;;;;;;26.57;18.33;;;-1.80;99.90;;;;;;5092461;28;20450;-75
2023/01/28 05:17:19;;;;;;;27.07;18.90;;;-1.80;99.90;;;;;;5092609;28;20480;-75
2023/01/28 05:19:48;;;;;;;27.97;19.03;;;-1.80;99.90;;;;;;5092442;28;20849;-75
2023/01/28 05:22:16;;;;;;;27.93;19.17;;;-1.80;99.90;;;;;;5091561;28;20477;-76
2023/01/28 05:24:44;;;;;;;27.73;19.80;;;-1.80;99.90;;;;;;5092296;28;20465;-77
2023/01/28 05:27:13;;;;;;;27.57;19.33;;;-1.90;99.90;;;;;;5091095;28;20710;-78
2023/01/28 05:29:42;;;;;;;27.23;19.43;;;-1.90;99.90;;;;;;5092296;28;20430;-77
2023/01/28 05:32:10;;;;;;;28.47;18.73;;;-2.00;99.90;;;;;;5091867;28;20535;-77
2023/01/28 05:34:38;;;;;;;27.67;18.90;;;-1.90;99.90;;;;;;5092234;28;20783;-75
2023/01/28 05:37:06;;;;;;;29.73;20.10;;;-1.90;99.90;;;;;;5092131;28;20453;-77
2023/01/28 05:39:35;;;;;;;30.87;21.20;;;-1.90;99.90;;;;;;5095452;28;20491;-75
2023/01/28 05:42:04;;;;;;;31.27;20.20;;;-2.00;99.90;;;;;;5111988;28;20853;-77
2023/01/28 05:44:33;;;;;;;30.77;20.93;;;-2.00;99.90;;;;;;5111637;28;20834;-77
2023/01/28 05:47:01;;;;;;;34.07;22.50;;;-2.00;99.90;;;;;;5111189;28;20552;-75
2023/01/28 05:49:29;;;;;;;35.20;22.57;;;-2.00;99.90;;;;;;5091654;28;20463;-75
2023/01/28 05:52:00;;;;;;;33.03;21.83;;;-2.00;99.90;;;;;;5091291;28;20461;-75
2023/01/28 05:54:28;;;;;;;35.17;23.03;;;-1.90;99.90;;;;;;5091765;28;20485;-76
2023/01/28 05:56:56;;;;;;;32.80;21.73;;;-2.00;99.90;;;;;;5091887;28;20437;-77
2023/01/28 05:59:24;;;;;;;31.97;21.60;;;-2.00;99.90;;;;;;5097758;28;20845;-76
2023/01/28 06:01:54;;;;;;;29.90;20.10;;;-1.90;99.90;;;;;;5111997;28;20479;-77
2023/01/28 06:04:22;;;;;;;32.30;20.77;;;-1.90;99.90;;;;;;5111863;28;20486;-77
2023/01/28 06:06:50;;;;;;;30.77;20.23;;;-1.90;99.90;;;;;;5112317;28;20448;-76
2023/01/28 06:09:18;;;;;;;32.27;21.57;;;-1.90;99.90;;;;;;5093851;28;20553;-78
2023/01/28 06:11:46;;;;;;;30.43;19.60;;;-2.00;99.90;;;;;;5091782;28;20536;-75
2023/01/28 06:14:14;;;;;;;29.90;19.70;;;-2.00;99.90;;;;;;5091717;28;20547;-76
2023/01/28 06:16:43;;;;;;;26.93;19.90;;;-1.90;99.90;;;;;;5091421;28;20961;-77
2023/01/28 06:19:12;;;;;;;27.77;19.30;;;-1.90;99.90;;;;;;5091780;28;20557;-77
2023/01/28 06:21:42;;;;;;;28.33;19.43;;;-1.90;99.90;;;;;;5107002;28;20559;-77
2023/01/28 06:24:10;;;;;;;24.97;17.67;;;-1.80;99.90;;;;;;5110305;28;20417;-77
2023/01/28 06:26:38;;;;;;;27.40;20.03;;;-1.90;99.90;;;;;;5091941;28;20477;-76
2023/01/28 06:29:06;;;;;;;26.67;18.80;;;-1.80;99.90;;;;;;5091703;28;20455;-78
2023/01/28 06:31:34;;;;;;;27.83;19.60;;;-1.80;99.90;;;;;;5091417;28;20949;-77
2023/01/28 06:34:03;;;;;;;27.63;19.00;;;-1.80;99.90;;;;;;5091916;28;21033;-75
2023/01/28 06:36:32;;;;;;;25.13;18.33;;;-1.80;99.90;;;;;;5112110;28;20551;-76
2023/01/28 06:39:00;;;;;;;26.43;18.47;;;-1.70;99.90;;;;;;5111822;28;20525;-76
2023/01/28 06:41:29;;;;;;;26.70;18.40;;;-1.70;99.90;;;;;;5111822;28;20448;-76
2023/01/28 06:43:58;;;;;;;26.77;18.30;;;-1.70;99.90;;;;;;5108108;28;20467;-75
2023/01/28 06:46:26;;;;;;;26.50;18.33;;;-1.70;99.90;;;;;;5111699;28;20984;-77
2023/01/28 06:48:54;;;;;;;26.10;18.73;;;-1.70;99.90;;;;;;5111972;28;20447;-77
2023/01/28 06:51:22;;;;;;;24.57;17.97;;;-1.70;99.90;;;;;;5108668;28;20471;-75
2023/01/28 06:53:51;;;;;;;28.50;19.13;;;-1.70;99.90;;;;;;5091114;28;20523;-76
2023/01/28 06:56:20;;;;;;;25.00;18.33;;;-1.70;99.90;;;;;;5106420;28;20557;-75
2023/01/28 06:58:48;;;;;;;24.03;18.27;;;-1.70;99.90;;;;;;5116946;28;20447;-78
2023/01/28 07:01:16;;;;;;;23.30;16.90;;;-1.60;99.90;;;;;;5104273;28;20479;-76
2023/01/28 07:03:44;;;;;;;24.73;17.53;;;-1.60;99.90;;;;;;5114794;28;20483;-77
2023/01/28 07:06:12;;;;;;;23.87;17.60;;;-1.60;99.90;;;;;;5115527;28;20444;-77
2023/01/28 07:08:41;;;;;;;22.90;16.73;;;-1.50;99.90;;;;;;5103606;28;20548;-77
2023/01/28 07:11:10;;;;;;;23.20;17.10;;;-1.60;99.90;;;;;;5094943;28;20477;-75
2023/01/28 07:13:38;;;;;;;25.33;18.23;;;-1.60;99.90;;;;;;5094723;28;20859;-77
2023/01/28 07:16:08;;;;;;;24.97;18.57;;;-1.60;99.90;;;;;;5094561;28;20957;-74
2023/01/28 07:18:36;;;;;;;24.07;17.67;;;-1.60;99.90;;;;;;5094956;28;20758;-76
2023/01/28 07:21:05;;;;;;;24.17;17.27;;;-1.60;99.90;;;;;;5113276;28;20802;-78
2023/01/28 07:23:33;;;;;;;25.03;18.23;;;-1.50;99.90;;;;;;5112155;28;20688;-77
2023/01/28 07:26:02;;;;;;;24.27;18.57;;;-1.50;99.90;;;;;;5114340;28;20443;-77
2023/01/28 07:28:32;;;;;;;25.53;18.70;;;-1.50;99.90;;;;;;5114284;28;20447;-76
2023/01/28 07:31:00;;;;;;;24.77;17.83;;;-1.50;99.90;;;;;;5110412;28;20513;-75
2023/01/28 07:33:29;;;;;;;23.60;17.73;;;-1.50;99.90;;;;;;5113747;28;20961;-76
2023/01/28 07:35:57;;;;;;;22.07;17.17;;;-1.40;99.90;;;;;;5113970;28;20440;-76
2023/01/28 07:38:25;;;;;;;23.67;16.90;;;-1.40;99.90;;;;;;5113329;28;20708;-76
2023/01/28 07:40:53;;;;;;;22.60;17.43;;;-1.40;99.90;;;;;;5094710;28;20456;-76
2023/01/28 07:43:22;;;;;;;23.93;17.17;;;-1.40;99.90;;;;;;5093904;28;20488;-78
2023/01/28 07:45:51;;;;;;;22.60;16.57;;;-1.40;99.90;;;;;;5094442;28;20560;-77
2023/01/28 07:48:20;;;;;;;25.00;17.77;;;-1.30;99.90;;;;;;5094467;28;20540;-78
2023/01/28 07:50:50;;;;;;;22.37;17.07;;;-1.40;99.90;;;;;;5108564;28;20458;-75
2023/01/28 07:53:19;;;;;;;22.60;16.60;;;-1.30;99.90;;;;;;5110190;28;20491;-77
2023/01/28 07:55:47;;;;;;;22.73;17.13;;;-1.40;99.90;;;;;;5093859;28;20448;-75
2023/01/28 07:58:15;;;;;;;23.50;16.87;;;-1.30;99.90;;;;;;5094171;28;20447;-77
2023/01/28 08:00:43;;;;;;;20.80;15.87;;;-1.20;99.90;;;;;;5101872;28;20460;-77
2023/01/28 08:03:15;;;;;;;23.47;17.23;;;-1.20;99.90;;;;;;5098877;28;20510;-77
2023/01/28 08:05:46;;;;;;;22.40;16.73;;;-1.20;99.90;;;;;;5111424;28;20437;-77
2023/01/28 08:08:15;;;;;;;22.97;17.10;;;-1.10;99.90;;;;;;5111567;28;20471;-77
2023/01/28 08:10:43;;;;;;;22.80;17.10;;;-1.10;99.90;;;;;;5113222;28;20448;-76
2023/01/28 08:13:12;;;;;;;22.27;16.23;;;-1.00;99.90;;;;;;5113876;28;20456;-76
2023/01/28 08:15:41;;;;;;;22.73;16.37;;;-1.00;99.90;;;;;;5114002;28;20491;-77
2023/01/28 08:18:12;;;;;;;21.43;15.97;;;-1.00;99.90;;;;;;5112912;28;20933;-77
2023/01/28 08:20:43;;;;;;;21.60;16.07;;;-0.80;99.90;;;;;;5093523;28;20520;-76
2023/01/28 08:23:13;;;;;;;20.50;15.57;;;-0.80;99.90;;;;;;5092925;28;20231;-76
2023/01/28 08:25:41;;;;;;;20.77;15.43;;;-0.70;99.90;;;;;;5093140;28;20969;-77
2023/01/28 08:28:10;;;;;;;18.30;14.23;;;-0.70;99.90;;;;;;5092788;28;20938;-77
2023/01/28 08:30:38;;;;;;;18.87;15.00;;;-0.70;99.90;;;;;;5093224;28;20814;-77
2023/01/28 08:33:10;;;;;;;19.37;15.03;;;-0.50;99.90;;;;;;5093062;28;20463;-77
2023/01/28 08:35:38;;;;;;;19.43;14.57;;;-0.50;99.90;;;;;;5093307;28;20214;-77
2023/01/28 08:38:08;;;;;;;18.30;14.50;;;-0.40;99.90;;;;;;5093120;28;20491;-77
2023/01/28 08:40:37;;;;;;;21.10;14.90;;;-0.40;99.90;;;;;;5093146;28;20845;-76
2023/01/28 08:43:05;;;;;;;20.57;14.73;;;-0.40;99.90;;;;;;5092492;28;20512;-76
2023/01/28 08:45:33;;;;;;;18.57;14.90;;;-0.30;99.90;;;;;;5094286;28;20822;-75
2023/01/28 08:48:03;;;;;;;19.43;14.83;;;-0.40;99.90;;;;;;5094113;28;20449;-78
2023/01/28 08:50:33;;;;;;;19.47;14.63;;;-0.40;99.90;;;;;;5093536;28;20210;-76
2023/01/28 08:53:03;;;;;;;19.30;14.97;;;-0.30;99.90;;;;;;5097172;28;20625;-75
2023/01/28 08:55:34;;;;;;;21.87;15.23;;;-0.30;99.90;;;;;;5113392;28;20440;-77
2023/01/28 08:58:04;;;;;;;19.97;14.67;;;-0.20;99.90;;;;;;5113591;28;20206;-77
2023/01/28 09:00:33;;;;;;;21.47;15.93;;;-0.20;99.90;;;;;;5113306;28;20301;-78
2023/01/28 09:03:02;;;;;;;18.83;14.87;;;-0.10;99.90;;;;;;5098235;28;20229;-76
2023/01/28 09:05:34;;;;;;;19.17;14.67;;;0.00;99.90;;;;;;5092826;28;20256;-77
2023/01/28 09:08:03;;;;;;;19.37;14.83;;;0.00;99.90;;;;;;5092602;28;20210;-77
2023/01/28 09:10:32;;;;;;;20.60;15.13;;;0.00;99.90;;;;;;5092629;28;20235;-78
2023/01/28 09:13:05;;;;;;;18.70;14.77;;;0.10;99.90;;;;;;5097777;28;20659;-79
2023/01/28 09:15:33;;;;;;;18.17;13.87;;;0.10;99.90;;;;;;5113353;28;20281;-77
2023/01/28 09:18:01;;;;;;;16.77;13.40;;;0.10;99.90;;;;;;5112552;28;20660;-77
2023/01/28 09:20:31;;;;;;;17.57;13.47;;;0.20;99.90;;;;;;5111131;28;20293;-78
2023/01/28 09:23:00;;;;;;;19.07;14.00;;;0.10;99.90;;;;;;5112535;28;20313;-78
2023/01/28 09:25:28;;;;;;;16.47;13.43;;;0.20;99.90;;;;;;5112391;28;20210;-78
2023/01/28 09:27:58;;;;;;;18.20;13.33;;;0.20;99.90;;;;;;5112881;28;20266;-78
2023/01/28 09:30:26;;;;;;;17.63;13.67;;;0.40;99.90;;;;;;5096832;28;20214;-77
2023/01/28 09:32:56;;;;;;;17.60;15.13;;;0.40;99.90;;;;;;5090515;28;20906;-78
2023/01/28 09:35:26;;;;;;;18.27;14.13;;;0.20;99.90;;;;;;5092169;28;20217;-77
2023/01/28 09:37:58;;;;;;;18.77;14.03;;;0.40;99.90;;;;;;5092152;28;20314;-77
2023/01/28 09:40:34;;;;;;;17.90;14.18;;;0.30;99.90;;;;;;5092145;28;20519;-78
2023/01/28 09:43:36;;;;;;;18.67;14.57;;;0.20;99.90;;;;;;5092226;28;20191;-75
2023/01/28 09:46:07;;;;;;;17.30;13.97;;;0.10;99.90;;;;;;5091861;28;20285;-78
2023/01/28 09:48:39;;;;;;;17.07;13.60;;;-0.10;99.90;;;;;;5091813;28;20221;-78
2023/01/28 09:51:15;;;;;;;18.17;14.33;;;0.10;99.90;;;;;;5091938;28;20210;-77
2023/01/28 09:53:48;;;;;;;19.20;14.20;;;0.10;99.90;;;;;;5091634;28;20201;-78
2023/01/28 09:56:25;;;;;;;19.53;14.87;;;0.00;99.90;;;;;;5092099;28;20191;-77
2023/01/28 09:58:55;;;;;;;20.07;15.00;;;0.00;99.90;;;;;;5109521;28;20206;-78
2023/01/28 10:01:39;;;;;;;19.17;15.10;;;0.00;99.90;;;;;;5112555;28;20212;-76
2023/01/28 10:04:21;;;;;;;17.97;13.73;;;0.30;99.90;;;;;;5098599;28;20684;-77
2023/01/28 10:07:02;;;;;;;19.07;14.17;;;0.30;99.90;;;;;;5092112;28;20552;-76
2023/01/28 10:09:41;;;;;;;18.97;14.33;;;0.50;99.90;;;;;;5091646;28;20712;-76
2023/01/28 10:12:25;;;;;;;18.83;13.67;;;0.50;99.90;;;;;;5091393;28;20669;-77
2023/01/28 10:15:10;;;;;;;17.03;13.60;;;0.60;99.90;;;;;;5091762;28;20222;-77
2023/01/28 10:17:42;;;;;;;18.60;13.90;;;0.80;99.90;;;;;;5091712;28;20226;-78
2023/01/28 10:20:21;;;;;;;18.00;14.07;;;1.00;99.90;;;;;;5102968;28;20297;-79
2023/01/28 10:22:54;;;;;;;21.03;15.03;;;1.30;99.90;;;;;;5111926;28;20221;-77
2023/01/28 10:25:24;;;;;;;19.87;14.80;;;1.10;99.90;;;;;;5112277;28;20206;-76
2023/01/28 10:27:53;;;;;;;17.23;14.03;;;1.00;99.90;;;;;;5108799;28;20207;-78
2023/01/28 10:30:25;;;;;;;18.47;14.30;;;1.10;99.90;;;;;;5093204;28;20206;-77
2023/01/28 10:32:56;;;;;;;18.03;14.70;;;0.90;99.90;;;;;;5095337;28;20203;-76
2023/01/28 10:35:24;;;;;;;18.13;14.33;;;1.10;99.90;;;;;;5095555;28;20238;-78
2023/01/28 10:37:57;;;;;;;18.07;13.87;;;1.10;99.90;;;;;;5095666;28;20584;-78
2023/01/28 10:40:25;;;;;;;19.13;14.60;;;1.40;99.90;;;;;;5096386;28;20238;-77
2023/01/28 10:42:54;;;;;;;19.33;15.20;;;1.50;99.90;;;;;;5095629;28;20211;-78
2023/01/28 10:45:26;;;;;;;16.50;13.83;;;1.10;99.90;;;;;;5095862;28;20227;-77
2023/01/28 10:48:00;;;;;;;18.27;14.37;;;1.30;99.90;;;;;;5095677;28;20555;-78
2023/01/28 10:50:30;;;;;;;17.73;13.63;;;1.40;99.90;;;;;;5095336;28;20198;-78
2023/01/28 10:53:00;;;;;;;18.57;14.07;;;1.70;99.90;;;;;;5095701;28;20242;-79
2023/01/28 10:55:31;;;;;;;16.80;12.80;;;1.90;99.90;;;;;;5115632;28;20209;-77
2023/01/28 10:58:00;;;;;;;17.00;12.77;;;1.90;99.90;;;;;;5115843;28;20297;-77
2023/01/28 11:00:32;;;;;;;16.77;13.40;;;2.00;99.90;;;;;;5115607;28;20606;-77
2023/01/28 11:03:00;;;;;;;16.10;12.33;;;2.30;99.90;;;;;;5102964;28;20211;-78
2023/01/28 11:05:30;;;;;;;16.40;12.83;;;3.30;99.90;;;;;;5094982;28;20227;-77
2023/01/28 11:08:17;;;;;;;15.23;12.50;;;4.20;99.90;;;;;;5095317;28;20638;-78
2023/01/28 11:10:46;;;;;;;15.43;11.93;;;3.40;99.90;;;;;;5094954;28;20199;-78
2023/01/28 11:13:19;;;;;;;15.30;11.70;;;3.10;99.90;;;;;;5109396;28;20210;-78
2023/01/28 11:15:51;;;;;;;14.70;12.00;;;3.70;99.90;;;;;;5116036;28;20281;-77
2023/01/28 11:18:23;;;;;;;16.93;13.17;;;2.90;99.90;;;;;;5115454;28;20190;-76
2023/01/28 11:20:55;;;;;;;18.80;14.67;;;2.60;99.90;;;;;;5111612;28;20541;-77
2023/01/28 11:23:26;;;;;;;17.17;13.83;;;2.70;99.90;;;;;;5094241;28;20305;-76
2023/01/28 11:26:04;;;;;;;16.40;12.50;;;2.40;99.90;;;;;;5086121;28;20219;-77
2023/01/28 11:28:32;;;;;;;15.80;12.73;;;2.30;99.90;;;;;;5094760;28;20568;-76
2023/01/28 11:31:04;;;;;;;16.90;13.13;;;2.10;99.90;;;;;;5094321;28;20242;-77
2023/01/28 11:33:37;;;;;;;18.20;14.00;;;2.10;99.90;;;;;;5093556;28;20730;-77
2023/01/28 11:36:12;;;;;;;18.07;13.13;;;2.30;99.90;;;;;;5094632;28;20188;-78
2023/01/28 11:38:48;;;;;;;18.03;13.67;;;2.10;99.90;;;;;;5102644;28;20234;-77
2023/01/28 11:41:17;;;;;;;15.50;12.33;;;1.80;99.90;;;;;;5113812;28;20289;-78
2023/01/28 11:43:46;;;;;;;15.53;12.23;;;1.80;99.90;;;;;;5112633;28;20216;-79
2023/01/28 11:46:39;;;;;;;16.10;12.97;;;1.70;99.90;;;;;;5099128;28;20233;-78
2023/01/28 11:49:18;;;;;;;15.53;11.90;;;1.70;99.90;;;;;;5106701;28;20229;-78
2023/01/28 11:51:52;;;;;;;15.17;12.30;;;1.60;99.90;;;;;;5111105;28;20229;-78
2023/01/28 11:54:33;;;;;;;16.40;12.87;;;1.30;99.90;;;;;;5100223;28;20248;-78
2023/01/28 11:57:17;;;;;;;17.13;13.20;;;1.20;99.90;;;;;;5114384;28;20195;-76
2023/01/28 12:00:20;;;;;;;19.70;14.80;;;1.20;99.90;;;;;;5104218;28;20207;-78
2023/01/28 12:03:01;;;;;;;19.07;14.13;;;1.10;99.90;;;;;;5083285;28;20246;-78
2023/01/28 12:05:46;;;;;;;17.80;13.00;;;1.00;99.90;;;;;;5094067;28;20546;-78
2023/01/28 12:08:23;;;;;;;15.97;12.33;;;1.10;99.90;;;;;;5094054;28;20202;-77
2023/01/28 12:11:12;;;;;;;17.73;13.07;;;1.10;99.90;;;;;;5093658;28;20293;-79
2023/01/28 12:13:54;;;;;;;17.00;12.83;;;0.80;99.90;;;;;;5093601;28;20195;-79
2023/01/28 12:16:43;;;;;;;17.80;13.07;;;0.90;99.90;;;;;;5093755;28;20657;-77
2023/01/28 12:19:33;;;;;;;19.37;13.80;;;1.00;99.90;;;;;;5103754;28;20203;-78
2023/01/28 12:22:32;;;;;;;19.57;14.37;;;1.00;99.90;;;;;;5093470;28;20248;-76
2023/01/28 12:25:15;;;;;;;18.17;14.50;;;1.00;99.90;;;;;;5073249;28;20227;-78
2023/01/28 12:27:53;;;;;;;17.47;13.93;;;1.00;99.90;;;;;;5093719;28;20214;-77
2023/01/28 12:30:33;;;;;;;21.00;15.23;;;0.90;99.90;;;;;;5111942;28;20263;-78
2023/01/28 12:33:31;;;;;;;18.20;14.37;;;0.90;99.90;;;;;;5113533;28;20241;-77
2023/01/28 12:36:09;;;;;;;20.80;15.43;;;0.90;99.90;;;;;;5113814;28;20190;-76
2023/01/28 12:38:56;;;;;;;20.20;15.07;;;0.70;99.90;;;;;;5101125;28;20631;-78
2023/01/28 12:41:30;;;;;;;19.53;14.93;;;0.90;99.90;;;;;;5093476;28;20202;-77
2023/01/28 12:44:02;;;;;;;18.50;14.17;;;0.80;99.90;;;;;;5092895;28;20210;-77
2023/01/28 12:46:40;;;;;;;22.43;15.50;;;0.80;99.90;;;;;;5092813;28;20706;-78
2023/01/28 12:49:14;;;;;;;20.87;15.20;;;0.60;99.90;;;;;;5093316;28;20559;-76
2023/01/28 12:51:55;;;;;;;20.87;14.53;;;0.60;99.90;;;;;;5092750;28;20290;-78
2023/01/28 12:54:29;;;;;;;18.07;12.97;;;0.70;99.90;;;;;;5106409;28;20255;-77
2023/01/28 12:56:58;;;;;;;17.10;12.60;;;0.60;99.90;;;;;;5113764;28;20183;-78
2023/01/28 12:59:32;;;;;;;18.10;13.20;;;0.60;99.90;;;;;;5113237;28;20210;-77
2023/01/28 13:02:15;;;;;;;20.30;15.23;;;0.70;99.90;;;;;;5098061;28;20219;-78
2023/01/28 13:04:53;;;;;;;19.03;14.50;;;0.70;99.90;;;;;;5092618;28;20265;-78
2023/01/28 13:07:28;;;;;;;17.90;12.93;;;0.80;99.90;;;;;;5092883;28;20197;-79
2023/01/28 13:10:03;;;;;;;12.87;9.67;;;0.90;99.90;;;;;;5092145;28;20289;-78
2023/01/28 13:12:32;;;;;;;16.23;9.97;;;0.80;99.90;;;;;;5092518;28;20309;-78
2023/01/28 13:15:01;;;;;;;15.50;10.33;;;0.80;99.90;;;;;;5092408;28;20246;-76
2023/01/28 13:17:32;;;;;;;16.93;12.60;;;0.80;99.90;;;;;;5092660;28;20217;-77
2023/01/28 13:20:00;;;;;;;19.13;12.73;;;1.00;99.90;;;;;;5092198;28;20656;-76
2023/01/28 13:22:32;;;;;;;19.93;12.47;;;1.20;99.90;;;;;;5092424;28;20219;-78